createdAt,value
2023-04-19T00:00:03.065Z,1022.50
2023-04-19T00:01:03.059Z,1022.42
2023-04-19T00:02:03.134Z,1022.53
2023-04-19T00:03:03.150Z,1022.41
2023-04-19T00:04:03.336Z,1022.43
2023-04-19T00:05:03.121Z,1022.47
2023-04-19T00:06:03.002Z,1022.43
2023-04-19T00:07:03.005Z,1022.47
2023-04-19T00:08:02.978Z,1022.40
2023-04-19T00:09:02.968Z,1022.42
2023-04-19T00:10:02.957Z,1022.38
2023-04-19T00:11:02.958Z,1022.41
2023-04-19T00:12:02.962Z,1022.43
2023-04-19T00:13:02.991Z,1022.39
2023-04-19T00:14:02.913Z,1022.42
2023-04-19T00:15:02.907Z,1022.39
2023-04-19T00:16:02.894Z,1022.37
2023-04-19T00:17:03.023Z,1022.40
2023-04-19T00:18:02.948Z,1022.30
2023-04-19T00:19:02.862Z,1022.38
2023-04-19T00:20:02.853Z,1022.37
2023-04-19T00:21:02.843Z,1022.33
2023-04-19T00:22:02.859Z,1022.27
2023-04-19T00:23:02.818Z,1022.28
2023-04-19T00:24:02.807Z,1022.31
2023-04-19T00:25:02.795Z,1022.35
2023-04-19T00:26:02.780Z,1022.34
2023-04-19T00:27:02.792Z,1022.27
2023-04-19T00:28:02.761Z,1022.31
2023-04-19T00:29:02.776Z,1022.29
2023-04-19T00:30:02.734Z,1022.27
2023-04-19T00:31:02.829Z,1022.35
2023-04-19T00:32:02.720Z,1022.33
2023-04-19T00:33:02.800Z,1022.37
2023-04-19T00:34:02.693Z,1022.30
2023-04-19T00:35:02.683Z,1022.30
2023-04-19T00:36:02.688Z,1022.29
2023-04-19T00:37:02.713Z,1022.41
2023-04-19T00:38:02.653Z,1022.30
2023-04-19T00:39:02.651Z,1022.32
2023-04-19T00:40:02.647Z,1022.41
2023-04-19T00:41:02.634Z,1022.37
2023-04-19T00:42:02.608Z,1022.33
2023-04-19T00:43:02.594Z,1022.29
2023-04-19T00:44:02.590Z,1022.33
2023-04-19T00:45:02.611Z,1022.35
2023-04-19T00:46:02.631Z,1022.28
2023-04-19T00:47:02.563Z,1022.30
2023-04-19T00:48:02.667Z,1022.29
2023-04-19T00:49:02.532Z,1022.29
2023-04-19T00:50:02.538Z,1022.26
2023-04-19T00:51:02.576Z,1022.32
2023-04-19T00:52:02.542Z,1022.34
2023-04-19T00:53:02.563Z,1022.33
2023-04-19T00:54:02.548Z,1022.31
2023-04-19T00:55:02.578Z,1022.29
2023-04-19T00:56:02.521Z,1022.29
2023-04-19T00:57:02.442Z,1022.31
2023-04-19T00:58:02.430Z,1022.39
2023-04-19T00:59:02.420Z,1022.34
2023-04-19T01:00:02.428Z,1022.36
2023-04-19T01:01:02.488Z,1022.38
2023-04-19T01:02:02.524Z,1022.35
2023-04-19T01:03:02.575Z,1022.27
2023-04-19T01:04:02.438Z,1022.37
2023-04-19T01:05:02.362Z,1022.32
2023-04-19T01:06:02.450Z,1022.35
2023-04-19T01:07:02.340Z,1022.29
2023-04-19T01:08:02.322Z,1022.34
2023-04-19T01:09:02.315Z,1022.34
2023-04-19T01:10:02.294Z,1022.29
2023-04-19T01:11:02.303Z,1022.36
2023-04-19T01:12:02.299Z,1022.32
2023-04-19T01:13:02.270Z,1022.30
2023-04-19T01:14:02.254Z,1022.31
2023-04-19T01:15:02.245Z,1022.29
2023-04-19T01:16:02.326Z,1022.34
2023-04-19T01:17:02.246Z,1022.38
2023-04-19T01:18:02.320Z,1022.29
2023-04-19T01:19:02.255Z,1022.30
2023-04-19T01:20:02.191Z,1022.30
2023-04-19T01:21:02.198Z,1022.31
2023-04-19T01:22:02.177Z,1022.29
2023-04-19T01:23:02.166Z,1022.32
2023-04-19T01:24:02.170Z,1022.38
2023-04-19T01:25:02.141Z,1022.32
2023-04-19T01:26:02.151Z,1022.37
2023-04-19T01:27:02.110Z,1022.33
2023-04-19T01:28:02.100Z,1022.30
2023-04-19T01:29:02.134Z,1022.28
2023-04-19T01:30:02.108Z,1022.31
2023-04-19T01:31:02.116Z,1022.26
2023-04-19T01:32:02.103Z,1022.31
2023-04-19T01:33:02.127Z,1022.25
2023-04-19T01:34:02.056Z,1022.27
2023-04-19T01:35:02.036Z,1022.33
2023-04-19T01:36:02.040Z,1022.26
2023-04-19T01:37:02.010Z,1022.25
2023-04-19T01:38:02.120Z,1022.27
2023-04-19T01:39:01.982Z,1022.24
2023-04-19T01:40:01.979Z,1022.28
2023-04-19T01:41:01.978Z,1022.23
2023-04-19T01:42:01.950Z,1022.21
2023-04-19T01:43:01.938Z,1022.22
2023-04-19T01:44:02.053Z,1022.19
2023-04-19T01:45:01.959Z,1022.15
2023-04-19T01:46:01.915Z,1022.20
2023-04-19T01:47:02.026Z,1022.21
2023-04-19T01:48:01.948Z,1022.23
2023-04-19T01:49:01.927Z,1022.28
2023-04-19T01:50:01.892Z,1022.24
2023-04-19T01:51:01.918Z,1022.28
2023-04-19T01:52:01.862Z,1022.23
2023-04-19T01:53:01.833Z,1022.22
2023-04-19T01:54:01.823Z,1022.16
2023-04-19T01:55:01.864Z,1022.17
2023-04-19T01:56:01.815Z,1022.18
2023-04-19T01:57:01.846Z,1022.18
2023-04-19T01:58:01.776Z,1022.19
2023-04-19T01:59:01.770Z,1022.21
2023-04-19T02:00:01.791Z,1022.19
2023-04-19T02:01:01.767Z,1022.21
2023-04-19T02:02:01.884Z,1022.19
2023-04-19T02:03:09.688Z,1022.16
2023-04-19T02:04:02.000Z,1022.18
2023-04-19T02:05:01.754Z,1022.19
2023-04-19T02:06:01.695Z,1022.22
2023-04-19T02:07:01.691Z,1022.16
2023-04-19T02:08:01.754Z,1022.15
2023-04-19T02:09:01.665Z,1022.15
2023-04-19T02:10:01.734Z,1022.13
2023-04-19T02:11:01.637Z,1022.16
2023-04-19T02:12:01.630Z,1022.13
2023-04-19T02:13:01.632Z,1022.18
2023-04-19T02:14:01.640Z,1022.10
2023-04-19T02:15:01.610Z,1022.11
2023-04-19T02:16:01.662Z,1022.12
2023-04-19T02:17:01.579Z,1022.10
2023-04-19T02:18:01.602Z,1022.02
2023-04-19T02:19:01.644Z,1022.09
2023-04-19T02:20:01.561Z,1022.05
2023-04-19T02:21:01.552Z,1022.09
2023-04-19T02:22:01.539Z,1022.10
2023-04-19T02:23:01.529Z,1022.03
2023-04-19T02:24:01.505Z,1021.99
2023-04-19T02:25:01.583Z,1022.04
2023-04-19T02:26:01.510Z,1022.08
2023-04-19T02:27:01.469Z,1022.06
2023-04-19T02:28:01.463Z,1022.11
2023-04-19T02:29:01.449Z,1022.06
2023-04-19T02:30:01.480Z,1022.04
2023-04-19T02:31:01.434Z,1022.01
2023-04-19T02:32:01.541Z,1022.02
2023-04-19T02:33:01.429Z,1022.00
2023-04-19T02:34:01.393Z,1021.98
2023-04-19T02:35:01.414Z,1022.00
2023-04-19T02:36:01.380Z,1021.97
2023-04-19T02:37:01.382Z,1022.01
2023-04-19T02:38:01.350Z,1021.98
2023-04-19T02:39:01.335Z,1021.96
2023-04-19T02:40:01.464Z,1021.92
2023-04-19T02:41:01.320Z,1021.93
2023-04-19T02:42:01.330Z,1021.88
2023-04-19T02:43:01.297Z,1021.90
2023-04-19T02:44:01.304Z,1021.86
2023-04-19T02:45:01.307Z,1021.88
2023-04-19T02:46:01.296Z,1021.86
2023-04-19T02:47:01.255Z,1021.86
2023-04-19T02:48:01.322Z,1021.88
2023-04-19T02:49:01.230Z,1021.85
2023-04-19T02:50:01.312Z,1021.84
2023-04-19T02:51:01.213Z,1021.86
2023-04-19T02:52:01.198Z,1021.82
2023-04-19T02:53:01.215Z,1021.78
2023-04-19T02:54:01.186Z,1021.84
2023-04-19T02:55:01.220Z,1021.78
2023-04-19T02:56:01.166Z,1021.82
2023-04-19T02:57:01.197Z,1021.83
2023-04-19T02:58:01.144Z,1021.76
2023-04-19T02:59:01.166Z,1021.77
2023-04-19T03:00:01.138Z,1021.76
2023-04-19T03:01:01.108Z,1021.77
2023-04-19T03:02:01.156Z,1021.75
2023-04-19T03:03:01.341Z,1021.74
2023-04-19T03:04:01.168Z,1021.76
2023-04-19T03:05:01.059Z,1021.67
2023-04-19T03:06:01.054Z,1021.68
2023-04-19T03:07:01.037Z,1021.68
2023-04-19T03:08:01.058Z,1021.65
2023-04-19T03:09:01.166Z,1021.60
2023-04-19T03:10:01.029Z,1021.62
2023-04-19T03:11:00.991Z,1021.66
2023-04-19T03:12:01.001Z,1021.63
2023-04-19T03:13:00.976Z,1021.58
2023-04-19T03:14:00.986Z,1021.63
2023-04-19T03:15:00.978Z,1021.62
2023-04-19T03:16:01.002Z,1021.68
2023-04-19T03:17:00.928Z,1021.58
2023-04-19T03:18:00.946Z,1021.61
2023-04-19T03:19:00.935Z,1021.62
2023-04-19T03:20:00.890Z,1021.53
2023-04-19T03:21:00.879Z,1021.54
2023-04-19T03:22:00.871Z,1021.57
2023-04-19T03:23:00.855Z,1021.63
2023-04-19T03:24:00.868Z,1021.51
2023-04-19T03:25:00.871Z,1021.62
2023-04-19T03:26:00.829Z,1021.62
2023-04-19T03:27:00.822Z,1021.55
2023-04-19T03:28:00.800Z,1021.51
2023-04-19T03:29:00.786Z,1021.58
2023-04-19T03:30:00.806Z,1021.54
2023-04-19T03:31:00.789Z,1021.53
2023-04-19T03:32:00.786Z,1021.46
2023-04-19T03:33:00.772Z,1021.45
2023-04-19T03:34:00.736Z,1021.43
2023-04-19T03:35:00.738Z,1021.39
2023-04-19T03:36:00.711Z,1021.37
2023-04-19T03:37:00.708Z,1021.43
2023-04-19T03:38:00.689Z,1021.37
2023-04-19T03:39:00.697Z,1021.38
2023-04-19T03:40:00.736Z,1021.36
2023-04-19T03:41:00.679Z,1021.30
2023-04-19T03:42:00.646Z,1021.30
2023-04-19T03:43:00.638Z,1021.26
2023-04-19T03:44:00.620Z,1021.31
2023-04-19T03:45:00.634Z,1021.28
2023-04-19T03:46:00.637Z,1021.23
2023-04-19T03:47:00.594Z,1021.26
2023-04-19T03:48:02.776Z,1021.25
2023-04-19T03:49:00.573Z,1021.23
2023-04-19T03:50:00.626Z,1021.35
2023-04-19T03:51:00.554Z,1021.32
2023-04-19T03:52:00.543Z,1021.30
2023-04-19T03:53:00.522Z,1021.31
2023-04-19T03:54:00.532Z,1021.38
2023-04-19T03:55:00.555Z,1021.36
2023-04-19T03:56:00.495Z,1021.29
2023-04-19T03:57:00.518Z,1021.31
2023-04-19T03:58:00.468Z,1021.32
2023-04-19T03:59:00.459Z,1021.31
2023-04-19T04:00:00.482Z,1021.39
2023-04-19T04:01:00.437Z,1021.38
2023-04-19T04:02:00.473Z,1021.34
2023-04-19T04:03:00.656Z,1021.26
2023-04-19T04:04:01.736Z,1021.37
2023-04-19T04:05:00.540Z,1021.28
2023-04-19T04:06:00.384Z,1021.23
2023-04-19T04:07:00.373Z,1021.26
2023-04-19T04:08:00.358Z,1021.24
2023-04-19T04:09:00.373Z,1021.29
2023-04-19T04:10:00.355Z,1021.28
2023-04-19T04:11:00.325Z,1021.28
2023-04-19T04:12:00.354Z,1021.34
2023-04-19T04:13:00.339Z,1021.27
2023-04-19T04:14:00.340Z,1021.31
2023-04-19T04:15:00.288Z,1021.30
2023-04-19T04:16:00.284Z,1021.33
2023-04-19T04:17:00.261Z,1021.28
2023-04-19T04:18:00.294Z,1021.29
2023-04-19T04:19:00.266Z,1021.32
2023-04-19T04:20:00.233Z,1021.29
2023-04-19T04:21:00.212Z,1021.30
2023-04-19T04:22:00.205Z,1021.28
2023-04-19T04:23:00.198Z,1021.22
2023-04-19T04:24:00.248Z,1021.24
2023-04-19T04:25:00.167Z,1021.19
2023-04-19T04:26:00.164Z,1021.16
2023-04-19T04:27:00.156Z,1021.26
2023-04-19T04:28:00.200Z,1021.21
2023-04-19T04:29:00.171Z,1021.13
2023-04-19T04:30:00.193Z,1021.23
2023-04-19T04:31:00.110Z,1021.21
2023-04-19T04:32:00.191Z,1021.25
2023-04-19T04:33:00.166Z,1021.19
2023-04-19T04:34:00.120Z,1021.18
2023-04-19T04:35:00.092Z,1021.17
2023-04-19T04:36:00.080Z,1021.19
2023-04-19T04:37:00.061Z,1021.16
2023-04-19T04:38:00.200Z,1021.15
2023-04-19T04:39:00.114Z,1021.06
2023-04-19T04:40:00.051Z,1021.08
2023-04-19T04:41:00.015Z,1021.08
2023-04-19T04:42:00.006Z,1021.10
2023-04-19T04:42:59.994Z,1021.13
2023-04-19T04:45:00.192Z,1020.97
2023-04-19T04:46:00.006Z,1020.96
2023-04-19T04:46:59.966Z,1020.98
2023-04-19T04:48:00.005Z,1020.96
2023-04-19T04:48:59.977Z,1020.94
2023-04-19T04:50:00.019Z,1020.99
2023-04-19T04:50:59.916Z,1021.00
2023-04-19T04:51:59.902Z,1021.05
2023-04-19T04:52:59.978Z,1021.01
2023-04-19T04:53:59.881Z,1021.04
2023-04-19T04:54:59.865Z,1020.97
2023-04-19T04:55:59.871Z,1020.93
2023-04-19T04:56:59.916Z,1020.96
2023-04-19T04:57:59.869Z,1020.98
2023-04-19T04:58:59.828Z,1020.96
2023-04-19T04:59:59.820Z,1020.95
2023-04-19T05:00:59.856Z,1021.00
2023-04-19T05:01:59.828Z,1020.99
2023-04-19T05:02:59.970Z,1020.92
2023-04-19T05:03:59.780Z,1020.93
2023-04-19T05:04:59.768Z,1020.95
2023-04-19T05:05:59.750Z,1020.88
2023-04-19T05:06:59.738Z,1020.92
2023-04-19T05:07:59.753Z,1020.94
2023-04-19T05:08:59.724Z,1020.96
2023-04-19T05:09:59.701Z,1020.93
2023-04-19T05:10:59.691Z,1020.96
2023-04-19T05:11:59.694Z,1020.94
2023-04-19T05:12:59.688Z,1020.97
2023-04-19T05:13:59.687Z,1020.93
2023-04-19T05:14:59.645Z,1020.90
2023-04-19T05:15:59.666Z,1020.88
2023-04-19T05:16:59.674Z,1020.89
2023-04-19T05:17:59.658Z,1020.87
2023-04-19T05:18:59.617Z,1020.83
2023-04-19T05:19:59.592Z,1020.85
2023-04-19T05:20:59.581Z,1020.84
2023-04-19T05:21:59.589Z,1020.86
2023-04-19T05:22:59.566Z,1020.84
2023-04-19T05:23:59.568Z,1020.79
2023-04-19T05:24:59.545Z,1020.82
2023-04-19T05:25:59.526Z,1020.83
2023-04-19T05:26:59.513Z,1020.78
2023-04-19T05:27:59.519Z,1020.77
2023-04-19T05:28:59.490Z,1020.77
2023-04-19T05:29:59.490Z,1020.77
2023-04-19T05:30:59.568Z,1020.78
2023-04-19T05:31:59.467Z,1020.71
2023-04-19T05:32:59.652Z,1020.76
2023-04-19T05:33:59.441Z,1020.75
2023-04-19T05:34:59.425Z,1020.72
2023-04-19T05:35:59.423Z,1020.73
2023-04-19T05:36:59.413Z,1020.73
2023-04-19T05:37:59.470Z,1020.75
2023-04-19T05:38:59.383Z,1020.71
2023-04-19T05:39:59.367Z,1020.74
2023-04-19T05:40:59.368Z,1020.70
2023-04-19T05:41:59.362Z,1020.71
2023-04-19T05:42:59.358Z,1020.70
2023-04-19T05:43:59.334Z,1020.67
2023-04-19T05:44:59.316Z,1020.61
2023-04-19T05:45:59.357Z,1020.65
2023-04-19T05:46:59.299Z,1020.68
2023-04-19T05:47:59.330Z,1020.66
2023-04-19T05:48:59.297Z,1020.64
2023-04-19T05:49:59.275Z,1020.65
2023-04-19T05:50:59.255Z,1020.70
2023-04-19T05:51:59.252Z,1020.57
2023-04-19T05:52:59.286Z,1020.65
2023-04-19T05:53:59.289Z,1020.60
2023-04-19T05:54:59.223Z,1020.67
2023-04-19T05:55:59.240Z,1020.62
2023-04-19T05:56:59.218Z,1020.62
2023-04-19T05:57:59.246Z,1020.73
2023-04-19T05:58:59.166Z,1020.75
2023-04-19T06:00:59.170Z,1020.75
2023-04-19T06:01:59.239Z,1020.73
2023-04-19T06:02:59.238Z,1020.74
2023-04-19T06:03:59.270Z,1020.76
2023-04-19T06:05:02.518Z,1020.75
2023-04-19T06:06:00.294Z,1020.70
2023-04-19T06:06:59.078Z,1020.73
2023-04-19T06:08:02.213Z,1020.70
2023-04-19T06:08:59.052Z,1020.70
2023-04-19T06:09:59.047Z,1020.64
2023-04-19T06:11:02.415Z,1020.66
2023-04-19T06:12:00.072Z,1020.72
2023-04-19T06:12:59.009Z,1020.70
2023-04-19T06:13:58.996Z,1020.64
2023-04-19T06:14:58.990Z,1020.64
2023-04-19T06:15:59.041Z,1020.62
2023-04-19T06:16:58.976Z,1020.64
2023-04-19T06:17:59.906Z,1020.63
2023-04-19T06:18:58.958Z,1020.61
2023-04-19T06:19:58.932Z,1020.65
2023-04-19T06:20:59.006Z,1020.60
2023-04-19T06:21:58.985Z,1020.60
2023-04-19T06:22:58.893Z,1020.68
2023-04-19T06:23:58.884Z,1020.60
2023-04-19T06:24:58.874Z,1020.65
2023-04-19T06:25:58.872Z,1020.63
2023-04-19T06:26:58.868Z,1020.62
2023-04-19T06:27:58.860Z,1020.54
2023-04-19T06:28:58.828Z,1020.62
2023-04-19T06:29:58.822Z,1020.66
2023-04-19T06:30:58.813Z,1020.59
2023-04-19T06:31:58.844Z,1020.63
2023-04-19T06:32:58.840Z,1020.60
2023-04-19T06:33:58.777Z,1020.64
2023-04-19T06:34:58.764Z,1020.54
2023-04-19T06:35:58.758Z,1020.53
2023-04-19T06:36:58.812Z,1020.47
2023-04-19T06:37:58.750Z,1020.43
2023-04-19T06:38:58.734Z,1020.49
2023-04-19T06:39:58.715Z,1020.52
2023-04-19T06:40:58.701Z,1020.51
2023-04-19T06:41:58.945Z,1020.53
2023-04-19T06:42:58.711Z,1020.46
2023-04-19T06:43:58.675Z,1020.49
2023-04-19T06:44:58.654Z,1020.46
2023-04-19T06:45:58.736Z,1020.46
2023-04-19T06:46:58.669Z,1020.44
2023-04-19T06:47:58.679Z,1020.48
2023-04-19T06:48:58.611Z,1020.42
2023-04-19T06:49:58.611Z,1020.49
2023-04-19T06:50:58.629Z,1020.42
2023-04-19T06:51:58.593Z,1020.34
2023-04-19T06:53:06.190Z,1020.42
2023-04-19T06:53:58.559Z,1020.33
2023-04-19T06:54:58.545Z,1020.29
2023-04-19T06:55:58.539Z,1020.27
2023-04-19T06:56:58.534Z,1020.24
2023-04-19T06:57:58.510Z,1020.26
2023-04-19T06:58:58.517Z,1020.24
2023-04-19T06:59:58.492Z,1020.19
2023-04-19T07:00:58.525Z,1020.19
2023-04-19T07:01:58.578Z,1020.17
2023-04-19T07:02:58.559Z,1020.12
2023-04-19T07:03:58.589Z,1020.09
2023-04-19T07:04:58.432Z,1020.19
2023-04-19T07:06:06.211Z,1020.11
2023-04-19T07:06:58.412Z,1020.12
2023-04-19T07:07:58.424Z,1020.00
2023-04-19T07:08:58.527Z,1020.08
2023-04-19T07:09:58.395Z,1020.00
2023-04-19T07:10:58.421Z,1020.00
2023-04-19T07:11:58.396Z,1020.00
2023-04-19T07:12:58.376Z,1020.06
2023-04-19T07:13:58.339Z,1019.98
2023-04-19T07:14:58.323Z,1020.00
2023-04-19T07:15:58.467Z,1019.97
2023-04-19T07:16:58.344Z,1019.94
2023-04-19T07:17:58.313Z,1019.90
2023-04-19T07:18:58.288Z,1019.90
2023-04-19T07:19:58.380Z,1019.91
2023-04-19T07:20:58.264Z,1019.88
2023-04-19T07:21:58.270Z,1019.86
2023-04-19T07:22:58.235Z,1019.86
2023-04-19T07:23:58.230Z,1019.91
2023-04-19T07:24:58.233Z,1019.86
2023-04-19T07:25:58.200Z,1019.77
2023-04-19T07:27:05.284Z,1019.81
2023-04-19T07:27:58.179Z,1019.81
2023-04-19T07:28:58.175Z,1019.85
2023-04-19T07:29:58.155Z,1019.88
2023-04-19T07:30:58.147Z,1019.80
2023-04-19T07:31:58.351Z,1019.82
2023-04-19T07:32:58.162Z,1019.79
2023-04-19T07:33:58.122Z,1019.91
2023-04-19T07:34:58.104Z,1019.83
2023-04-19T07:35:58.093Z,1019.81
2023-04-19T07:36:58.096Z,1019.77
2023-04-19T07:37:58.072Z,1019.81
2023-04-19T07:38:58.062Z,1019.69
2023-04-19T07:39:58.062Z,1019.74
2023-04-19T07:40:58.103Z,1019.65
2023-04-19T07:42:05.124Z,1019.67
2023-04-19T07:42:58.027Z,1019.60
2023-04-19T07:43:58.009Z,1019.66
2023-04-19T07:44:58.033Z,1019.63
2023-04-19T07:45:58.060Z,1019.65
2023-04-19T07:46:58.160Z,1019.59
2023-04-19T07:47:58.033Z,1019.57
2023-04-19T07:48:57.962Z,1019.58
2023-04-19T07:49:57.957Z,1019.61
2023-04-19T07:50:57.953Z,1019.62
2023-04-19T07:51:57.928Z,1019.61
2023-04-19T07:52:57.911Z,1019.60
2023-04-19T07:53:57.909Z,1019.56
2023-04-19T07:54:57.891Z,1019.59
2023-04-19T07:55:57.892Z,1019.57
2023-04-19T07:56:57.906Z,1019.52
2023-04-19T07:57:57.854Z,1019.56
2023-04-19T07:59:07.397Z,1019.51
2023-04-19T07:59:58.835Z,1019.57
2023-04-19T08:00:57.872Z,1019.46
2023-04-19T08:01:57.878Z,1019.56
2023-04-19T08:02:58.004Z,1019.57
2023-04-19T08:03:58.062Z,1019.61
2023-04-19T08:04:58.086Z,1019.55
2023-04-19T08:05:57.773Z,1019.57
2023-04-19T08:06:57.785Z,1019.48
2023-04-19T08:07:57.759Z,1019.50
2023-04-19T08:08:57.747Z,1019.47
2023-04-19T08:09:57.796Z,1019.49
2023-04-19T08:10:58.234Z,1019.46
2023-04-19T08:11:57.746Z,1019.40
2023-04-19T08:13:05.590Z,1019.48
2023-04-19T08:14:11.491Z,1019.44
2023-04-19T08:15:05.171Z,1019.47
2023-04-19T08:17:22.428Z,1019.40
2023-04-19T08:17:58.677Z,1019.44
2023-04-19T08:18:57.640Z,1019.46
2023-04-19T08:19:57.626Z,1019.46
2023-04-19T08:20:57.622Z,1019.36
2023-04-19T08:21:57.643Z,1019.44
2023-04-19T08:22:59.171Z,1019.40
2023-04-19T08:23:57.584Z,1019.38
2023-04-19T08:24:57.576Z,1019.43
2023-04-19T08:25:57.567Z,1019.52
2023-04-19T08:26:59.873Z,1019.46
2023-04-19T08:27:57.558Z,1019.45
2023-04-19T08:28:57.570Z,1019.46
2023-04-19T08:29:57.522Z,1019.47
2023-04-19T08:30:57.597Z,1019.46
2023-04-19T08:31:57.600Z,1019.44
2023-04-19T08:32:57.586Z,1019.40
2023-04-19T08:33:57.486Z,1019.42
2023-04-19T08:34:57.500Z,1019.39
2023-04-19T08:35:57.460Z,1019.46
2023-04-19T08:37:03.920Z,1019.45
2023-04-19T08:37:58.464Z,1019.39
2023-04-19T08:39:05.476Z,1019.36
2023-04-19T08:39:58.419Z,1019.37
2023-04-19T08:40:57.417Z,1019.36
2023-04-19T08:42:06.646Z,1019.36
2023-04-19T08:42:58.386Z,1019.38
2023-04-19T08:43:57.379Z,1019.43
2023-04-19T08:45:13.722Z,1019.35
2023-04-19T08:45:58.372Z,1019.29
2023-04-19T08:46:57.369Z,1019.26
2023-04-19T08:48:01.169Z,1019.28
2023-04-19T08:48:57.329Z,1019.32
2023-04-19T08:50:08.668Z,1019.27
2023-04-19T08:51:04.915Z,1019.28
2023-04-19T08:51:58.370Z,1019.30
2023-04-19T08:53:02.795Z,1019.25
2023-04-19T08:53:58.288Z,1019.35
2023-04-19T08:54:57.268Z,1019.30
2023-04-19T08:56:10.865Z,1019.26
2023-04-19T08:56:58.305Z,1019.13
2023-04-19T08:57:57.228Z,1019.20
2023-04-19T08:59:11.710Z,1019.25
2023-04-19T08:59:58.206Z,1019.19
2023-04-19T09:00:57.407Z,1019.26
2023-04-19T09:01:57.281Z,1019.21
2023-04-19T09:02:57.254Z,1019.25
2023-04-19T09:04:07.178Z,1019.21
2023-04-19T09:04:58.302Z,1019.14
2023-04-19T09:05:57.278Z,1019.12
2023-04-19T09:06:57.145Z,1019.04
2023-04-19T09:07:57.122Z,1018.97
2023-04-19T09:08:57.105Z,1018.97
2023-04-19T09:10:03.041Z,1019.00
2023-04-19T09:10:58.082Z,1018.94
2023-04-19T09:11:57.083Z,1018.96
2023-04-19T09:12:57.060Z,1018.94
2023-04-19T09:13:57.049Z,1018.88
2023-04-19T09:15:57.065Z,1018.90
2023-04-19T09:16:57.068Z,1018.84
2023-04-19T09:17:57.038Z,1018.88
2023-04-19T09:19:08.117Z,1018.79
2023-04-19T09:19:58.000Z,1018.80
2023-04-19T09:20:56.979Z,1018.82
2023-04-19T09:21:57.004Z,1018.80
2023-04-19T09:22:56.952Z,1018.84
2023-04-19T09:23:56.937Z,1018.76
2023-04-19T09:26:19.362Z,1018.75
2023-04-19T09:26:57.947Z,1018.58
2023-04-19T09:27:56.899Z,1018.69
2023-04-19T09:28:56.886Z,1018.68
2023-04-19T09:29:56.877Z,1018.57
2023-04-19T09:31:03.507Z,1018.58
2023-04-19T09:31:57.919Z,1018.60
2023-04-19T09:32:56.967Z,1018.63
2023-04-19T09:33:56.832Z,1018.66
2023-04-19T09:34:56.828Z,1018.59
2023-04-19T09:35:56.820Z,1018.68
2023-04-19T09:37:08.499Z,1018.64
2023-04-19T09:38:05.849Z,1018.66
2023-04-19T09:38:57.772Z,1018.64
2023-04-19T09:39:56.769Z,1018.65
2023-04-19T09:40:56.787Z,1018.69
2023-04-19T09:41:56.746Z,1018.69
2023-04-19T09:44:07.747Z,1018.64
2023-04-19T09:45:56.698Z,1018.74
2023-04-19T09:46:56.749Z,1018.67
2023-04-19T09:47:56.730Z,1018.68
2023-04-19T09:48:56.848Z,1018.75
2023-04-19T09:49:56.654Z,1018.68
2023-04-19T09:51:01.977Z,1018.79
2023-04-19T09:51:57.659Z,1018.89
2023-04-19T09:52:56.624Z,1018.59
2023-04-19T09:53:56.610Z,1018.70
2023-04-19T09:54:56.604Z,1018.64
2023-04-19T09:56:02.004Z,1018.64
2023-04-19T09:56:59.489Z,1018.66
2023-04-19T09:57:56.586Z,1018.61
2023-04-19T09:59:08.531Z,1018.59
2023-04-19T09:59:57.549Z,1018.58
2023-04-19T10:01:06.561Z,1018.57
2023-04-19T10:01:57.642Z,1018.59
2023-04-19T10:02:56.554Z,1018.53
2023-04-19T10:03:59.214Z,1018.62
2023-04-19T10:05:57.534Z,1018.53
2023-04-19T10:07:24.502Z,1018.58
2023-04-19T10:07:59.617Z,1018.63
2023-04-19T10:08:56.476Z,1018.57
2023-04-19T10:09:59.970Z,1018.48
2023-04-19T10:10:59.182Z,1018.47
2023-04-19T10:12:03.750Z,1018.44
2023-04-19T10:13:11.574Z,1018.47
2023-04-19T10:13:57.421Z,1018.52
2023-04-19T10:14:56.390Z,1018.42
2023-04-19T10:16:01.821Z,1018.48
2023-04-19T10:16:57.388Z,1018.43
2023-04-19T10:17:56.383Z,1018.42
2023-04-19T10:18:56.379Z,1018.36
2023-04-19T10:19:56.368Z,1018.59
2023-04-19T10:20:56.396Z,1018.36
2023-04-19T10:21:56.314Z,1018.39
2023-04-19T10:22:56.306Z,1018.29
2023-04-19T10:23:56.294Z,1018.33
2023-04-19T10:24:56.285Z,1018.37
2023-04-19T10:25:56.294Z,1018.32
2023-04-19T10:26:56.265Z,1018.28
2023-04-19T10:27:56.268Z,1018.26
2023-04-19T10:28:56.244Z,1018.14
2023-04-19T10:29:56.235Z,1018.19
2023-04-19T10:30:56.259Z,1018.10
2023-04-19T10:31:56.223Z,1018.19
2023-04-19T10:32:56.469Z,1018.09
2023-04-19T10:33:56.189Z,1018.17
2023-04-19T10:34:56.180Z,1018.17
2023-04-19T10:35:56.186Z,1018.20
2023-04-19T10:36:56.220Z,1018.24
2023-04-19T10:37:56.146Z,1018.10
2023-04-19T10:38:56.133Z,1018.24
2023-04-19T10:39:56.149Z,1018.24
2023-04-19T10:40:56.211Z,1018.28
2023-04-19T10:41:56.104Z,1018.15
2023-04-19T10:42:56.091Z,1018.23
2023-04-19T10:43:56.195Z,1018.15
2023-04-19T10:44:56.074Z,1018.17
2023-04-19T10:45:56.111Z,1018.30
2023-04-19T10:46:56.055Z,1018.23
2023-04-19T10:47:56.080Z,1018.13
2023-04-19T10:48:56.032Z,1018.34
2023-04-19T10:49:56.012Z,1018.29
2023-04-19T10:50:56.013Z,1018.27
2023-04-19T10:51:55.998Z,1018.27
2023-04-19T10:52:56.008Z,1018.19
2023-04-19T10:53:55.983Z,1018.15
2023-04-19T10:54:55.965Z,1018.20
2023-04-19T10:55:55.994Z,1018.18
2023-04-19T10:56:55.938Z,1018.21
2023-04-19T10:57:55.925Z,1018.17
2023-04-19T10:58:55.918Z,1018.19
2023-04-19T10:59:55.928Z,1018.14
2023-04-19T11:00:56.025Z,1018.15
2023-04-19T11:01:56.033Z,1018.44
2023-04-19T11:02:55.973Z,1018.14
2023-04-19T11:03:56.058Z,1018.20
2023-04-19T11:04:55.855Z,1018.13
2023-04-19T11:05:55.874Z,1018.09
2023-04-19T11:06:55.831Z,1018.11
2023-04-19T11:07:55.821Z,1018.06
2023-04-19T11:08:55.849Z,1018.13
2023-04-19T11:09:55.801Z,1018.24
2023-04-19T11:10:55.816Z,1018.03
2023-04-19T11:11:55.779Z,1018.03
2023-04-19T11:12:55.794Z,1018.06
2023-04-19T11:13:55.753Z,1018.05
2023-04-19T11:14:55.750Z,1018.01
2023-04-19T11:15:55.793Z,1017.94
2023-04-19T11:16:55.832Z,1018.00
2023-04-19T11:18:11.449Z,1017.97
2023-04-19T11:18:56.696Z,1017.98
2023-04-19T11:19:55.690Z,1017.91
2023-04-19T11:20:55.715Z,1017.95
2023-04-19T11:21:55.666Z,1017.90
2023-04-19T11:22:55.652Z,1018.03
2023-04-19T11:23:55.643Z,1017.95
2023-04-19T11:24:55.673Z,1017.98
2023-04-19T11:25:55.637Z,1017.90
2023-04-19T11:26:55.765Z,1017.90
2023-04-19T11:27:55.600Z,1017.86
2023-04-19T11:28:55.585Z,1017.83
2023-04-19T11:29:55.584Z,1017.83
2023-04-19T11:30:55.619Z,1017.81
2023-04-19T11:31:55.572Z,1017.77
2023-04-19T11:32:55.628Z,1017.79
2023-04-19T11:33:55.534Z,1017.74
2023-04-19T11:34:55.521Z,1017.71
2023-04-19T11:35:55.553Z,1017.67
2023-04-19T11:36:55.506Z,1017.71
2023-04-19T11:37:55.496Z,1017.72
2023-04-19T11:38:55.475Z,1017.72
2023-04-19T11:39:55.473Z,1017.67
2023-04-19T11:40:55.498Z,1017.65
2023-04-19T11:41:55.448Z,1017.77
2023-04-19T11:42:55.502Z,1017.70
2023-04-19T11:43:55.429Z,1017.72
2023-04-19T11:44:55.473Z,1017.68
2023-04-19T11:45:55.429Z,1017.66
2023-04-19T11:46:55.466Z,1017.54
2023-04-19T11:47:55.442Z,1017.59
2023-04-19T11:48:55.465Z,1017.71
2023-04-19T11:49:55.373Z,1017.69
2023-04-19T11:50:55.396Z,1017.63
2023-04-19T11:51:55.370Z,1017.61
2023-04-19T11:52:55.331Z,1017.69
2023-04-19T11:53:55.322Z,1017.63
2023-04-19T11:54:55.307Z,1017.54
2023-04-19T11:55:55.309Z,1017.66
2023-04-19T11:56:55.314Z,1017.80
2023-04-19T11:57:55.325Z,1017.73
2023-04-19T11:58:55.285Z,1017.76
2023-04-19T11:59:55.252Z,1017.74
2023-04-19T12:00:55.250Z,1017.75
2023-04-19T12:01:55.245Z,1017.68
2023-04-19T12:02:55.471Z,1017.67
2023-04-19T12:03:55.410Z,1017.60
2023-04-19T12:04:55.350Z,1017.56
2023-04-19T12:05:55.243Z,1017.55
2023-04-19T12:06:55.169Z,1017.52
2023-04-19T12:07:55.180Z,1017.47
2023-04-19T12:08:55.180Z,1017.51
2023-04-19T12:09:55.150Z,1017.48
2023-04-19T12:10:55.147Z,1017.43
2023-04-19T12:11:55.120Z,1017.38
2023-04-19T12:12:55.128Z,1017.47